createdAt,value
2022-12-17T00:01:54.182Z,10.34
2022-12-17T00:04:41.198Z,10.35
2022-12-17T00:07:35.439Z,10.38
2022-12-17T00:10:22.507Z,10.42
2022-12-17T00:13:09.237Z,10.44
2022-12-17T00:15:56.464Z,10.47
2022-12-17T00:18:43.594Z,10.53
2022-12-17T00:21:30.082Z,10.55
2022-12-17T00:24:16.821Z,10.55
2022-12-17T00:27:03.352Z,10.56
2022-12-17T00:29:50.071Z,10.51
2022-12-17T00:32:38.256Z,10.50
2022-12-17T00:35:25.339Z,10.48
2022-12-17T00:38:11.737Z,10.46
2022-12-17T00:40:58.610Z,10.45
2022-12-17T00:43:45.392Z,10.46
2022-12-17T00:46:32.126Z,10.44
2022-12-17T00:49:18.771Z,10.40
2022-12-17T00:52:05.473Z,10.36
2022-12-17T00:54:52.410Z,10.37
2022-12-17T00:57:38.976Z,10.38
2022-12-17T01:00:26.154Z,10.42
2022-12-17T01:03:12.894Z,10.39
2022-12-17T01:05:59.510Z,10.37
2022-12-17T01:08:47.113Z,10.34
2022-12-17T01:11:34.261Z,10.32
2022-12-17T01:14:20.948Z,10.32
2022-12-17T01:17:07.709Z,10.35
2022-12-17T01:19:54.494Z,10.39
2022-12-17T01:22:43.360Z,10.44
2022-12-17T01:25:29.924Z,10.48
2022-12-17T01:28:18.347Z,10.49
2022-12-17T01:31:07.821Z,10.52
2022-12-17T01:33:54.843Z,10.57
2022-12-17T01:36:41.687Z,10.60
2022-12-17T01:39:28.406Z,10.51
2022-12-17T01:42:15.127Z,10.43
2022-12-17T01:45:15.681Z,10.32
2022-12-17T01:48:11.447Z,10.24
2022-12-17T01:51:02.182Z,10.23
2022-12-17T01:53:54.123Z,10.24
2022-12-17T01:56:45.297Z,10.25
2022-12-17T01:59:33.196Z,10.23
2022-12-17T02:02:19.673Z,10.21
2022-12-17T02:05:06.510Z,10.21
2022-12-17T02:08:08.547Z,10.22
2022-12-17T02:11:03.303Z,10.24
2022-12-17T02:13:56.150Z,10.25
2022-12-17T02:16:50.352Z,10.29
2022-12-17T02:19:59.042Z,10.30
2022-12-17T02:22:58.921Z,10.31
2022-12-17T02:26:19.466Z,10.35
2022-12-17T02:29:09.819Z,10.40
2022-12-17T02:31:59.707Z,10.42
2022-12-17T02:34:46.781Z,10.38
2022-12-17T02:37:34.186Z,10.31
2022-12-17T02:40:24.367Z,10.25
2022-12-17T02:43:11.302Z,10.23
2022-12-17T02:45:58.895Z,10.23
2022-12-17T02:48:46.458Z,10.25
2022-12-17T02:51:33.975Z,10.29
2022-12-17T02:54:22.882Z,10.33
2022-12-17T02:57:09.663Z,10.31
2022-12-17T02:59:56.065Z,10.28
2022-12-17T03:02:43.516Z,10.23
2022-12-17T03:05:46.163Z,10.20
2022-12-17T03:08:33.040Z,10.17
2022-12-17T03:11:19.730Z,10.19
2022-12-17T03:14:06.283Z,10.19
2022-12-17T03:16:52.980Z,10.19
2022-12-17T03:19:39.486Z,10.15
2022-12-17T03:22:26.038Z,10.13
2022-12-17T03:25:12.747Z,10.09
2022-12-17T03:27:59.477Z,10.09
2022-12-17T03:30:49.167Z,10.11
2022-12-17T03:33:36.387Z,10.08
2022-12-17T03:36:23.154Z,10.05
2022-12-17T03:39:09.807Z,10.02
2022-12-17T03:41:56.546Z,9.97
2022-12-17T03:44:43.482Z,9.94
2022-12-17T03:47:30.053Z,9.93
2022-12-17T03:50:17.029Z,9.93
2022-12-17T03:53:03.649Z,9.90
2022-12-17T03:55:50.288Z,9.88
2022-12-17T03:58:36.865Z,9.80
2022-12-17T04:01:23.966Z,9.78
2022-12-17T04:04:10.880Z,9.82
2022-12-17T04:06:57.714Z,9.85
2022-12-17T04:09:44.485Z,9.80
2022-12-17T04:12:30.948Z,9.70
2022-12-17T04:15:17.523Z,9.65
2022-12-17T04:18:04.280Z,9.63
2022-12-17T04:20:50.984Z,9.60
2022-12-17T04:23:37.872Z,9.60
2022-12-17T04:26:27.946Z,9.60
2022-12-17T04:29:14.510Z,9.59
2022-12-17T04:32:01.756Z,9.48
2022-12-17T04:34:48.570Z,9.38
2022-12-17T04:37:35.239Z,9.31
2022-12-17T04:40:21.958Z,9.25
2022-12-17T04:43:08.717Z,9.23
2022-12-17T04:45:56.661Z,9.23
2022-12-17T04:48:43.427Z,9.25
2022-12-17T04:51:30.332Z,9.29
2022-12-17T04:54:18.069Z,9.34
2022-12-17T04:57:04.799Z,9.30
2022-12-17T04:59:51.355Z,9.26
2022-12-17T05:02:42.509Z,9.30
2022-12-17T05:05:30.079Z,9.30
2022-12-17T05:08:17.138Z,9.34
2022-12-17T05:11:03.744Z,9.33
2022-12-17T05:13:50.450Z,9.29
2022-12-17T05:16:37.007Z,9.25
2022-12-17T05:19:23.612Z,9.27
2022-12-17T05:22:13.401Z,9.30
2022-12-17T05:25:00.264Z,9.29
2022-12-17T05:27:46.916Z,9.31
2022-12-17T05:30:33.571Z,9.32
2022-12-17T05:33:21.804Z,9.34
2022-12-17T05:36:08.219Z,9.36
2022-12-17T05:38:57.392Z,9.37
2022-12-17T05:41:44.032Z,9.37
2022-12-17T05:44:30.629Z,9.35
2022-12-17T05:47:17.306Z,9.33
2022-12-17T05:50:04.097Z,9.30
2022-12-17T05:52:50.798Z,9.28
2022-12-17T05:55:37.280Z,9.23
2022-12-17T05:58:25.858Z,9.15
2022-12-17T06:01:17.106Z,9.16
2022-12-17T06:04:03.889Z,9.20
2022-12-17T06:06:51.076Z,9.18
2022-12-17T06:09:38.437Z,9.21
2022-12-17T06:12:25.337Z,9.25
2022-12-17T06:15:12.226Z,9.27
2022-12-17T06:18:16.300Z,9.26
2022-12-17T06:21:04.374Z,9.27
2022-12-17T06:23:51.183Z,9.31
2022-12-17T06:26:39.005Z,9.37
2022-12-17T06:29:25.435Z,9.40
2022-12-17T06:32:12.269Z,9.43
2022-12-17T06:34:59.007Z,9.49
2022-12-17T06:37:45.657Z,9.55
2022-12-17T06:40:32.328Z,9.59
2022-12-17T06:43:18.918Z,9.66
2022-12-17T06:46:05.624Z,9.73
2022-12-17T06:48:52.289Z,9.78
2022-12-17T06:51:38.815Z,9.73
2022-12-17T06:54:25.491Z,9.69
2022-12-17T06:57:12.144Z,9.67
2022-12-17T06:59:58.838Z,9.66
2022-12-17T07:02:45.597Z,9.68
2022-12-17T07:05:32.556Z,9.70
2022-12-17T07:08:19.754Z,9.78
2022-12-17T07:11:06.302Z,9.87
2022-12-17T07:13:53.171Z,9.91
2022-12-17T07:16:40.361Z,9.86
2022-12-17T07:19:27.713Z,9.85
2022-12-17T07:22:14.489Z,9.88
2022-12-17T07:25:01.043Z,9.93
2022-12-17T07:27:47.602Z,10.00
2022-12-17T07:30:34.216Z,10.02
2022-12-17T07:33:26.002Z,10.00
2022-12-17T07:36:13.759Z,9.99
2022-12-17T07:39:00.285Z,9.98
2022-12-17T07:41:46.859Z,9.98
2022-12-17T07:44:33.946Z,10.04
2022-12-17T07:47:37.483Z,10.10
2022-12-17T07:50:24.339Z,10.17
2022-12-17T07:53:21.633Z,10.20
2022-12-17T07:56:08.614Z,10.15
2022-12-17T07:58:55.465Z,10.14
2022-12-17T08:01:42.362Z,10.14
2022-12-17T08:04:28.911Z,10.15
2022-12-17T08:07:15.459Z,10.14
2022-12-17T08:10:02.190Z,10.10
2022-12-17T08:12:49.343Z,10.15
2022-12-17T08:15:36.083Z,10.19
2022-12-17T08:18:26.706Z,10.21
2022-12-17T08:21:13.506Z,10.23
2022-12-17T08:24:00.108Z,10.27
2022-12-17T08:26:48.301Z,10.30
2022-12-17T08:29:34.973Z,10.33
2022-12-17T08:32:21.667Z,10.29
2022-12-17T08:35:08.676Z,10.27
2022-12-17T08:37:55.226Z,10.31
2022-12-17T08:40:41.927Z,10.36
2022-12-17T08:43:28.592Z,10.38
2022-12-17T08:46:15.304Z,10.40
2022-12-17T08:49:02.960Z,10.46
2022-12-17T08:51:49.875Z,10.51
2022-12-17T08:54:36.612Z,10.51
2022-12-17T08:57:31.515Z,10.48
2022-12-17T09:00:19.206Z,10.47
2022-12-17T09:03:05.975Z,10.48
2022-12-17T09:05:52.775Z,10.49
2022-12-17T09:08:39.495Z,10.50
2022-12-17T09:11:25.947Z,10.49
2022-12-17T09:14:12.599Z,10.48
2022-12-17T09:16:59.349Z,10.44
2022-12-17T09:19:45.995Z,10.44
2022-12-17T09:22:32.771Z,10.45
2022-12-17T09:25:19.560Z,10.45
2022-12-17T09:28:06.192Z,10.44
2022-12-17T09:30:53.241Z,10.45
2022-12-17T09:33:41.017Z,10.45
2022-12-17T09:36:28.087Z,10.47
2022-12-17T09:39:14.934Z,10.51
2022-12-17T09:42:11.877Z,10.56
2022-12-17T09:45:09.970Z,10.62
2022-12-17T09:48:02.869Z,10.66
2022-12-17T09:50:49.365Z,10.69
2022-12-17T09:53:55.051Z,10.68
2022-12-17T09:56:45.853Z,10.62
2022-12-17T09:59:40.473Z,10.62
2022-12-17T10:02:39.261Z,10.56
2022-12-17T10:05:53.877Z,10.46
2022-12-17T10:08:40.531Z,10.33
2022-12-17T10:11:48.569Z,10.20
2022-12-17T10:14:40.015Z,10.22
2022-12-17T10:17:39.214Z,10.28
2022-12-17T10:20:52.347Z,10.29
2022-12-17T10:23:45.833Z,10.29
2022-12-17T10:26:53.804Z,10.27
2022-12-17T10:29:47.666Z,10.26
2022-12-17T10:32:34.917Z,10.27
2022-12-17T10:35:32.853Z,10.26
2022-12-17T10:38:20.840Z,10.25
2022-12-17T10:41:07.681Z,10.29
2022-12-17T10:43:57.925Z,10.32
2022-12-17T10:46:50.265Z,10.27
2022-12-17T10:49:44.090Z,10.28
2022-12-17T10:52:48.364Z,10.27
2022-12-17T10:55:47.541Z,10.24
2022-12-17T10:58:55.379Z,10.25
2022-12-17T11:01:44.727Z,10.23
2022-12-17T11:04:57.646Z,10.23
2022-12-17T11:07:56.383Z,10.22
2022-12-17T11:10:47.200Z,10.21
2022-12-17T11:13:58.914Z,10.27
2022-12-17T11:16:53.917Z,10.33
2022-12-17T11:20:14.189Z,10.33
2022-12-17T11:23:04.097Z,10.26
2022-12-17T11:25:59.985Z,10.31
2022-12-17T11:28:49.334Z,10.35
2022-12-17T11:31:36.168Z,10.38
2022-12-17T11:34:52.105Z,10.38
2022-12-17T11:37:41.666Z,10.41
2022-12-17T11:40:40.293Z,10.45
2022-12-17T11:43:46.311Z,10.45
2022-12-17T11:46:33.197Z,10.36
2022-12-17T11:49:28.736Z,10.14
2022-12-17T11:52:34.750Z,9.90
2022-12-17T11:56:05.003Z,9.54
2022-12-17T11:59:04.917Z,9.06
2022-12-17T12:02:03.642Z,8.39
2022-12-17T12:04:50.512Z,8.03
2022-12-17T12:07:54.524Z,7.93
2022-12-17T12:10:47.282Z,7.86
2022-12-17T12:13:56.359Z,7.76
2022-12-17T12:17:16.442Z,7.65
2022-12-17T12:20:13.288Z,7.59
2022-12-17T12:23:17.371Z,7.33
2022-12-17T12:26:04.206Z,7.04
2022-12-17T12:29:12.680Z,6.99
2022-12-17T12:32:05.309Z,7.03
2022-12-17T12:34:56.945Z,6.98
2022-12-17T12:37:54.475Z,6.99
2022-12-17T12:40:57.893Z,6.88
2022-12-17T12:43:52.029Z,6.83
2022-12-17T12:47:00.304Z,6.85
2022-12-17T12:50:15.416Z,6.51
2022-12-17T12:53:22.249Z,6.41
2022-12-17T12:56:08.891Z,6.14
2022-12-17T12:58:55.721Z,6.11
2022-12-17T13:01:53.311Z,5.98
2022-12-17T13:04:58.476Z,6.00
2022-12-17T13:07:29.918Z,5.90
2022-12-17T13:09:59.598Z,5.68
2022-12-17T13:12:46.137Z,5.61
2022-12-17T13:15:30.165Z,5.46
2022-12-17T13:18:19.488Z,5.37
2022-12-17T13:21:23.443Z,5.35
2022-12-17T13:23:51.735Z,5.23
2022-12-17T13:26:42.988Z,5.21
2022-12-17T13:29:21.557Z,5.16
2022-12-17T13:32:31.661Z,5.19
2022-12-17T13:35:27.258Z,5.24
2022-12-17T13:38:05.035Z,5.26
2022-12-17T13:40:48.900Z,5.25
2022-12-17T13:43:21.303Z,5.29
2022-12-17T13:45:51.669Z,5.28
2022-12-17T13:48:23.217Z,5.13
2022-12-17T13:51:03.588Z,5.14
2022-12-17T13:53:35.582Z,5.25
2022-12-17T13:56:03.969Z,5.23
2022-12-17T13:58:33.978Z,5.14
2022-12-17T14:01:15.637Z,5.17
2022-12-17T14:04:06.235Z,5.24
2022-12-17T14:06:38.212Z,5.26
2022-12-17T14:09:07.232Z,5.26
2022-12-17T14:11:56.397Z,5.12
2022-12-17T14:14:30.854Z,5.10
2022-12-17T14:16:59.486Z,5.01
2022-12-17T14:19:29.618Z,4.98
2022-12-17T14:21:58.321Z,4.85
2022-12-17T14:24:29.735Z,4.72
2022-12-17T14:27:00.849Z,4.62
2022-12-17T14:29:31.702Z,4.53
2022-12-17T14:32:02.945Z,4.57
2022-12-17T14:34:41.617Z,4.36
2022-12-17T14:37:20.361Z,4.36
2022-12-17T14:39:49.431Z,4.31
2022-12-17T14:42:29.893Z,4.28
2022-12-17T14:45:00.727Z,4.28
2022-12-17T14:47:36.140Z,4.35
2022-12-17T14:50:07.726Z,4.39
2022-12-17T14:52:41.572Z,4.27
2022-12-17T14:55:24.872Z,4.19
2022-12-17T14:58:06.100Z,4.17
2022-12-17T15:00:37.637Z,4.10
2022-12-17T15:03:06.940Z,4.03
2022-12-17T15:05:35.436Z,3.96
2022-12-17T15:08:05.509Z,3.84
2022-12-17T15:10:33.688Z,3.80
2022-12-17T15:13:02.143Z,3.71
2022-12-17T15:15:30.399Z,3.76
2022-12-17T15:17:59.383Z,3.82
2022-12-17T15:20:27.688Z,3.75
2022-12-17T15:22:55.791Z,3.74
2022-12-17T15:25:23.908Z,3.65
2022-12-17T15:27:52.492Z,3.65
2022-12-17T15:30:20.715Z,3.74
2022-12-17T15:32:49.216Z,3.75
2022-12-17T15:35:17.544Z,3.78
2022-12-17T15:37:45.831Z,3.74
2022-12-17T15:40:14.225Z,3.72
2022-12-17T15:43:06.162Z,3.73
2022-12-17T15:45:34.722Z,3.77
2022-12-17T15:48:03.408Z,3.76
2022-12-17T15:50:32.046Z,3.71
2022-12-17T15:53:00.471Z,3.67
2022-12-17T15:55:29.652Z,3.57
2022-12-17T15:57:58.819Z,3.59
2022-12-17T16:00:29.121Z,3.62
2022-12-17T16:02:59.189Z,3.58
2022-12-17T16:05:28.308Z,3.43
2022-12-17T16:07:59.297Z,3.30
2022-12-17T16:10:27.511Z,3.26
2022-12-17T16:12:55.471Z,3.31
2022-12-17T16:15:23.521Z,3.30
2022-12-17T16:17:53.097Z,3.24
2022-12-17T16:20:21.364Z,3.26
2022-12-17T16:22:50.170Z,3.22
2022-12-17T16:25:18.978Z,3.24
2022-12-17T16:27:47.282Z,3.23
2022-12-17T16:30:15.608Z,3.13
2022-12-17T16:32:43.829Z,3.14
2022-12-17T16:35:12.054Z,3.17
2022-12-17T16:37:40.426Z,3.23
2022-12-17T16:40:09.806Z,3.22
2022-12-17T16:42:38.851Z,3.19
2022-12-17T16:45:07.693Z,3.14
2022-12-17T16:47:36.034Z,3.09
2022-12-17T16:50:04.998Z,3.05
2022-12-17T16:52:34.110Z,2.98
2022-12-17T16:55:02.731Z,2.97
2022-12-17T16:57:31.150Z,2.94
2022-12-17T16:59:59.708Z,2.87
2022-12-17T17:02:28.207Z,2.97
2022-12-17T17:04:56.415Z,3.01
2022-12-17T17:07:24.691Z,3.04
2022-12-17T17:09:52.721Z,2.90
2022-12-17T17:12:21.095Z,2.82
2022-12-17T17:14:49.348Z,2.83
2022-12-17T17:17:17.757Z,2.81
2022-12-17T17:19:46.165Z,2.69
2022-12-17T17:22:14.505Z,2.64
2022-12-17T17:24:42.510Z,2.49
2022-12-17T17:27:10.764Z,2.42
2022-12-17T17:29:39.070Z,2.45
2022-12-17T17:32:11.357Z,2.48
2022-12-17T17:34:41.212Z,2.46
2022-12-17T17:37:09.438Z,2.53
2022-12-17T17:39:37.577Z,2.53
2022-12-17T17:42:06.292Z,2.47
2022-12-17T17:44:35.036Z,2.42
2022-12-17T17:47:03.454Z,2.34
2022-12-17T17:49:31.802Z,2.35
2022-12-17T17:52:15.386Z,2.28
2022-12-17T17:54:43.745Z,2.30
2022-12-17T17:57:12.172Z,2.27
2022-12-17T17:59:40.392Z,2.28
2022-12-17T18:02:11.252Z,2.16
2022-12-17T18:04:40.221Z,2.15
2022-12-17T18:07:24.778Z,2.09
2022-12-17T18:09:54.548Z,2.06
2022-12-17T18:12:41.493Z,2.08
2022-12-17T18:15:15.209Z,2.00
2022-12-17T18:17:46.939Z,2.02
2022-12-17T18:20:16.572Z,2.05
2022-12-17T18:22:46.760Z,2.02
2022-12-17T18:25:16.586Z,2.02
2022-12-17T18:27:45.561Z,1.96
2022-12-17T18:30:16.419Z,1.90
2022-12-17T18:32:45.521Z,1.92
2022-12-17T18:35:13.596Z,1.87
2022-12-17T18:37:42.126Z,1.83
2022-12-17T18:40:10.948Z,1.73
2022-12-17T18:42:57.797Z,1.79
2022-12-17T18:45:26.224Z,1.73
2022-12-17T18:47:54.627Z,1.69
2022-12-17T18:50:22.822Z,1.64
2022-12-17T18:52:51.082Z,1.67
2022-12-17T18:55:19.052Z,1.66
2022-12-17T18:57:47.420Z,1.59
2022-12-17T19:00:15.653Z,1.50
2022-12-17T19:02:44.683Z,1.55
2022-12-17T19:05:13.090Z,1.52
2022-12-17T19:07:41.320Z,1.44
2022-12-17T19:10:09.935Z,1.29
2022-12-17T19:12:38.029Z,1.24
2022-12-17T19:15:06.529Z,1.21
2022-12-17T19:17:34.800Z,1.26
2022-12-17T19:20:02.919Z,1.19
2022-12-17T19:22:30.993Z,1.12
2022-12-17T19:24:59.018Z,1.08
2022-12-17T19:27:27.355Z,1.14
2022-12-17T19:29:57.188Z,1.09
2022-12-17T19:32:25.906Z,0.98
2022-12-17T19:34:54.332Z,0.89
2022-12-17T19:37:22.546Z,0.84
2022-12-17T19:39:50.811Z,0.88
2022-12-17T19:42:25.112Z,0.75
2022-12-17T19:44:55.197Z,0.80
2022-12-17T19:47:24.213Z,0.92
2022-12-17T19:49:52.321Z,0.96
2022-12-17T19:52:20.659Z,0.93
2022-12-17T19:54:49.929Z,0.79
2022-12-17T19:57:18.785Z,0.63
2022-12-17T19:59:47.296Z,0.59
2022-12-17T20:02:17.438Z,0.51
2022-12-17T20:04:46.124Z,0.47
2022-12-17T20:07:14.331Z,0.45
2022-12-17T20:09:44.797Z,0.38
2022-12-17T20:12:13.429Z,0.32
2022-12-17T20:14:41.620Z,0.29
2022-12-17T20:17:10.021Z,0.32
2022-12-17T20:19:38.764Z,0.21
2022-12-17T20:22:07.173Z,0.12
2022-12-17T20:24:37.515Z,0.12
2022-12-17T20:27:06.526Z,0.22
2022-12-17T20:29:34.700Z,0.14
2022-12-17T20:32:03.223Z,-0.06
2022-12-17T20:34:31.979Z,-0.08
2022-12-17T20:37:00.001Z,-0.19
2022-12-17T20:39:28.606Z,-0.13
2022-12-17T20:41:57.522Z,-0.06
2022-12-17T20:44:26.338Z,-0.05
2022-12-17T20:46:54.740Z,-0.18
2022-12-17T20:49:22.979Z,-0.24
2022-12-17T20:51:51.000Z,-0.33
2022-12-17T20:54:19.116Z,-0.33
2022-12-17T20:56:47.264Z,-0.29
2022-12-17T20:59:17.255Z,-0.23
2022-12-17T21:01:51.490Z,-0.24
2022-12-17T21:04:21.224Z,-0.21
2022-12-17T21:06:49.226Z,-0.21
2022-12-17T21:09:20.238Z,-0.22
2022-12-17T21:11:49.077Z,-0.28
2022-12-17T21:14:18.703Z,-0.34
2022-12-17T21:16:47.849Z,-0.33
2022-12-17T21:19:18.909Z,-0.33
2022-12-17T21:21:47.216Z,-0.34
2022-12-17T21:24:15.992Z,-0.26
2022-12-17T21:26:47.345Z,-0.18
2022-12-17T21:29:16.146Z,-0.09
2022-12-17T21:31:50.090Z,-0.12
2022-12-17T21:34:21.965Z,-0.11
2022-12-17T21:36:50.757Z,-0.12
2022-12-17T21:39:19.784Z,-0.12
2022-12-17T21:42:08.157Z,-0.15
2022-12-17T21:44:36.487Z,-0.17
2022-12-17T21:47:04.796Z,-0.19
2022-12-17T21:49:32.973Z,-0.22
2022-12-17T21:52:02.351Z,-0.17
2022-12-17T21:54:30.328Z,-0.18
2022-12-17T21:56:58.374Z,-0.27
2022-12-17T21:59:26.757Z,-0.28
2022-12-17T22:01:57.688Z,-0.31
2022-12-17T22:04:26.614Z,-0.32
2022-12-17T22:07:00.242Z,-0.25
2022-12-17T22:10:04.113Z,-0.12
2022-12-17T22:12:49.745Z,-0.15
2022-12-17T22:15:18.291Z,-0.05
2022-12-17T22:17:47.109Z,0.08
2022-12-17T22:20:18.808Z,0.14
2022-12-17T22:22:47.359Z,0.02
2022-12-17T22:25:16.353Z,0.05
2022-12-17T22:27:44.579Z,0.04
2022-12-17T22:30:34.616Z,0.09
2022-12-17T22:33:05.670Z,0.11
2022-12-17T22:38:45.001Z,0.16
2022-12-17T22:41:13.060Z,0.10
2022-12-17T22:44:34.290Z,0.01
2022-12-17T22:44:52.096Z,0.07
2022-12-17T22:47:21.550Z,0.13
2022-12-17T22:49:49.710Z,0.12
2022-12-17T22:52:18.801Z,0.09
2022-12-17T22:54:48.459Z,-0.07
2022-12-17T22:57:35.942Z,-0.28
2022-12-17T23:00:20.919Z,-0.23
2022-12-17T23:02:52.832Z,-0.26
2022-12-17T23:05:26.058Z,-0.23
2022-12-17T23:07:55.247Z,-0.31
2022-12-17T23:10:25.050Z,-0.35
2022-12-17T23:12:55.218Z,-0.33
2022-12-17T23:15:36.682Z,-0.40
2022-12-17T23:18:07.484Z,-0.45
2022-12-17T23:20:37.114Z,-0.52
2022-12-17T23:23:05.272Z,-0.56
2022-12-17T23:25:33.529Z,-0.48
2022-12-17T23:28:01.670Z,-0.51
2022-12-17T23:30:30.144Z,-0.57
2022-12-17T23:32:58.171Z,-0.59
2022-12-17T23:35:26.293Z,-0.63
2022-12-17T23:37:55.350Z,-0.67
2022-12-17T23:40:23.776Z,-0.67
2022-12-17T23:42:51.845Z,-0.61
2022-12-17T23:45:19.979Z,-0.56
2022-12-17T23:47:48.038Z,-0.52
2022-12-17T23:50:16.190Z,-0.52
2022-12-17T23:52:44.385Z,-0.52
2022-12-17T23:55:12.350Z,-0.55
2022-12-17T23:57:40.468Z,-0.60
